EZS12XR LSGG-BKPR
Flight info
| Callsign | EZS12XR |
|---|---|
| Flight time | 1h 56m |
| Altitude | 37000 |
| Route | MEDAM DCT NITAM DCT MOGBO DCT ASTIG DCT RIPDU DCT LURUT DCT IBENI DCT TAZ DCT RINAV DCT ARBER ARBER1D |
| Aircraft | A320/M-SDE2E3FGHIJ1RWXYZ/LB1 |
Departure
| Time | 2026-04-16 12:47 |
|---|---|
| Airport | Geneva International Airport (LSGG) |
Arrival
| Time | 2026-04-16 14:43 |
|---|---|
| Airport | Priština Adem Jashari International Airport (BKPR) |
| Time | Latitude | Longitude | Altitude | Speed | Heading |
|---|---|---|---|---|---|
| 2026-04-16 11:42 | 46.23032 | 6.10570 | 1393 ft | 0 kts | 136° |
| 2026-04-16 12:35 | 46.23046 | 6.10552 | 1406 ft | 4 kts | 149° |
| 2026-04-16 12:35 | 46.23070 | 6.10539 | 1403 ft | 4 kts | 185° |
| 2026-04-16 12:35 | 46.23092 | 6.10551 | 1399 ft | 2 kts | 225° |
| 2026-04-16 12:36 | 46.23094 | 6.10553 | 1398 ft | 0 kts | 225° |
| 2026-04-16 12:39 | 46.23089 | 6.10546 | 1393 ft | 4 kts | 225° |
| 2026-04-16 12:40 | 46.23074 | 6.10503 | 1396 ft | 6 kts | 270° |
| 2026-04-16 12:40 | 46.23095 | 6.10450 | 1398 ft | 7 kts | 313° |
| 2026-04-16 12:40 | 46.23136 | 6.10391 | 1393 ft | 10 kts | 315° |
| 2026-04-16 12:40 | 46.23165 | 6.10345 | 1393 ft | 9 kts | 303° |
| 2026-04-16 12:41 | 46.23133 | 6.10245 | 1399 ft | 7 kts | 229° |
| 2026-04-16 12:41 | 46.23109 | 6.10208 | 1394 ft | 8 kts | 227° |
| 2026-04-16 12:41 | 46.23068 | 6.10145 | 1397 ft | 9 kts | 226° |
| 2026-04-16 12:41 | 46.23018 | 6.10071 | 1399 ft | 8 kts | 225° |
| 2026-04-16 12:42 | 46.22977 | 6.10012 | 1400 ft | 8 kts | 225° |
| 2026-04-16 12:42 | 46.22933 | 6.09947 | 1399 ft | 10 kts | 225° |
| 2026-04-16 12:42 | 46.22900 | 6.09899 | 1398 ft | 11 kts | 225° |
| 2026-04-16 12:42 | 46.22828 | 6.09796 | 1395 ft | 10 kts | 225° |
| 2026-04-16 12:43 | 46.22783 | 6.09729 | 1395 ft | 9 kts | 225° |
| 2026-04-16 12:43 | 46.22755 | 6.09689 | 1399 ft | 9 kts | 225° |
| 2026-04-16 12:43 | 46.22710 | 6.09624 | 1398 ft | 9 kts | 225° |
| 2026-04-16 12:43 | 46.22668 | 6.09562 | 1395 ft | 8 kts | 226° |
| 2026-04-16 12:44 | 46.22633 | 6.09510 | 1401 ft | 7 kts | 226° |
| 2026-04-16 12:44 | 46.22594 | 6.09449 | 1396 ft | 8 kts | 229° |
| 2026-04-16 12:44 | 46.22570 | 6.09401 | 1400 ft | 8 kts | 239° |
| 2026-04-16 12:44 | 46.22553 | 6.09336 | 1403 ft | 5 kts | 257° |
| 2026-04-16 12:45 | 46.22551 | 6.09298 | 1411 ft | 4 kts | 268° |
| 2026-04-16 12:45 | 46.22554 | 6.09218 | 1411 ft | 11 kts | 285° |
| 2026-04-16 12:45 | 46.22595 | 6.09165 | 1417 ft | 10 kts | 351° |
| 2026-04-16 12:45 | 46.22649 | 6.09200 | 1417 ft | 1 kts | 43° |
| 2026-04-16 12:46 | 46.22680 | 6.09243 | 1417 ft | 30 kts | 45° |
| 2026-04-16 12:46 | 46.22996 | 6.09705 | 1413 ft | 97 kts | 46° |
| 2026-04-16 12:46 | 46.23607 | 6.10603 | 1384 ft | 152 kts | 45° |
| 2026-04-16 12:47 | 46.24401 | 6.11792 | 1676 ft | 170 kts | 46° |
| 2026-04-16 12:47 | 46.25215 | 6.13043 | 2375 ft | 170 kts | 46° |
| 2026-04-16 12:47 | 46.26042 | 6.14263 | 3150 ft | 169 kts | 46° |
| 2026-04-16 12:47 | 46.26868 | 6.15467 | 3775 ft | 168 kts | 46° |
| 2026-04-16 12:48 | 46.27691 | 6.16666 | 4386 ft | 168 kts | 45° |
| 2026-04-16 12:48 | 46.28530 | 6.17885 | 4858 ft | 178 kts | 44° |
| 2026-04-16 12:48 | 46.29463 | 6.19241 | 5062 ft | 202 kts | 44° |
| 2026-04-16 12:48 | 46.30511 | 6.20771 | 5352 ft | 226 kts | 44° |
| 2026-04-16 12:49 | 46.31655 | 6.22445 | 5687 ft | 249 kts | 44° |
| 2026-04-16 12:49 | 46.32898 | 6.24273 | 6338 ft | 259 kts | 45° |
| 2026-04-16 12:49 | 46.34175 | 6.26154 | 7095 ft | 265 kts | 45° |
| 2026-04-16 12:49 | 46.35444 | 6.28115 | 7840 ft | 270 kts | 53° |
| 2026-04-16 12:50 | 46.36218 | 6.30619 | 8560 ft | 278 kts | 78° |
| 2026-04-16 12:50 | 46.36241 | 6.33438 | 9276 ft | 285 kts | 102° |
| 2026-04-16 12:50 | 46.35533 | 6.36109 | 10035 ft | 288 kts | 123° |
| 2026-04-16 12:50 | 46.34186 | 6.38245 | 10724 ft | 290 kts | 146° |
| 2026-04-16 12:51 | 46.32397 | 6.39498 | 11376 ft | 293 kts | 168° |
| 2026-04-16 12:51 | 46.30364 | 6.39652 | 12002 ft | 296 kts | 191° |
| 2026-04-16 12:51 | 46.28422 | 6.38634 | 12521 ft | 305 kts | 212° |
| 2026-04-16 12:51 | 46.26564 | 6.36940 | 12694 ft | 327 kts | 214° |
| 2026-04-16 12:52 | 46.24613 | 6.35090 | 13073 ft | 341 kts | 215° |
| 2026-04-16 12:52 | 46.22620 | 6.33196 | 13769 ft | 345 kts | 214° |
| 2026-04-16 12:52 | 46.20451 | 6.31644 | 14410 ft | 352 kts | 201° |
| 2026-04-16 12:52 | 46.18063 | 6.30785 | 15027 ft | 358 kts | 189° |
| 2026-04-16 12:53 | 46.15597 | 6.30572 | 15639 ft | 362 kts | 184° |
| 2026-04-16 12:53 | 46.13072 | 6.30437 | 16246 ft | 365 kts | 184° |
| 2026-04-16 12:53 | 46.10526 | 6.30293 | 16859 ft | 368 kts | 184° |
| 2026-04-16 12:53 | 46.07966 | 6.30144 | 17445 ft | 370 kts | 185° |
| 2026-04-16 12:54 | 46.05379 | 6.29993 | 18052 ft | 373 kts | 185° |
| 2026-04-16 12:54 | 46.02772 | 6.29841 | 18625 ft | 376 kts | 184° |
| 2026-04-16 12:54 | 46.00144 | 6.29686 | 19148 ft | 379 kts | 185° |
| 2026-04-16 12:54 | 45.97493 | 6.29529 | 19643 ft | 383 kts | 184° |
| 2026-04-16 12:55 | 45.94815 | 6.29369 | 20145 ft | 387 kts | 184° |
| 2026-04-16 12:55 | 45.92110 | 6.29371 | 20645 ft | 392 kts | 176° |
| 2026-04-16 12:55 | 45.89459 | 6.30079 | 21175 ft | 397 kts | 165° |
| 2026-04-16 12:55 | 45.86884 | 6.31558 | 21664 ft | 402 kts | 152° |
| 2026-04-16 12:56 | 45.84529 | 6.33753 | 22142 ft | 406 kts | 143° |
| 2026-04-16 12:56 | 45.82255 | 6.36187 | 22638 ft | 409 kts | 143° |
| 2026-04-16 12:56 | 45.79966 | 6.38627 | 23138 ft | 412 kts | 143° |
| 2026-04-16 12:56 | 45.77650 | 6.41091 | 23631 ft | 416 kts | 143° |
| 2026-04-16 12:57 | 45.75318 | 6.43565 | 24057 ft | 419 kts | 143° |
| 2026-04-16 12:57 | 45.72967 | 6.46053 | 24448 ft | 422 kts | 143° |
| 2026-04-16 12:57 | 45.70629 | 6.48520 | 24830 ft | 425 kts | 143° |
| 2026-04-16 12:57 | 45.68243 | 6.51035 | 25217 ft | 427 kts | 143° |
| 2026-04-16 12:58 | 45.65846 | 6.53559 | 25571 ft | 430 kts | 143° |
| 2026-04-16 12:58 | 45.63430 | 6.56105 | 25946 ft | 433 kts | 143° |
| 2026-04-16 12:58 | 45.60996 | 6.58664 | 26309 ft | 436 kts | 144° |
| 2026-04-16 12:58 | 45.58547 | 6.61234 | 26669 ft | 438 kts | 144° |
| 2026-04-16 12:59 | 45.56084 | 6.63816 | 27015 ft | 440 kts | 143° |
| 2026-04-16 12:59 | 45.53609 | 6.66411 | 27355 ft | 443 kts | 143° |
| 2026-04-16 12:59 | 45.51154 | 6.68989 | 27691 ft | 445 kts | 143° |
| 2026-04-16 13:00 | 45.46137 | 6.74252 | 28344 ft | 450 kts | 143° |
| 2026-04-16 13:00 | 45.43601 | 6.76881 | 28653 ft | 452 kts | 144° |
| 2026-04-16 13:00 | 45.41031 | 6.79487 | 28963 ft | 455 kts | 144° |
| 2026-04-16 13:00 | 45.38439 | 6.82070 | 29265 ft | 457 kts | 144° |
| 2026-04-16 13:01 | 45.35824 | 6.84657 | 29553 ft | 459 kts | 144° |
| 2026-04-16 13:01 | 45.33195 | 6.87257 | 29843 ft | 462 kts | 144° |
| 2026-04-16 13:01 | 45.30555 | 6.89874 | 30138 ft | 464 kts | 144° |
| 2026-04-16 13:01 | 45.27940 | 6.92473 | 30403 ft | 466 kts | 144° |
| 2026-04-16 13:02 | 45.25421 | 6.95376 | 30649 ft | 467 kts | 135° |
| 2026-04-16 13:02 | 45.23095 | 6.98605 | 30885 ft | 469 kts | 134° |
| 2026-04-16 13:02 | 45.20762 | 7.01845 | 31106 ft | 470 kts | 134° |
| 2026-04-16 13:02 | 45.18418 | 7.05081 | 31399 ft | 470 kts | 134° |
| 2026-04-16 13:03 | 45.16073 | 7.08302 | 31698 ft | 469 kts | 134° |
| 2026-04-16 13:03 | 45.13729 | 7.11512 | 31983 ft | 468 kts | 134° |
| 2026-04-16 13:03 | 45.11405 | 7.14743 | 32272 ft | 468 kts | 130° |
| 2026-04-16 13:03 | 45.09352 | 7.18292 | 32577 ft | 465 kts | 122° |
| 2026-04-16 13:04 | 45.07529 | 7.21983 | 32877 ft | 465 kts | 122° |
| 2026-04-16 13:04 | 45.05675 | 7.25728 | 33179 ft | 465 kts | 122° |
| 2026-04-16 13:04 | 45.03817 | 7.29468 | 33478 ft | 465 kts | 122° |
| 2026-04-16 13:04 | 45.01955 | 7.33201 | 33800 ft | 464 kts | 122° |
| 2026-04-16 13:05 | 45.00247 | 7.37052 | 34099 ft | 461 kts | 114° |
| 2026-04-16 13:05 | 44.98973 | 7.41177 | 34312 ft | 456 kts | 105° |
| 2026-04-16 13:05 | 44.98156 | 7.45481 | 34523 ft | 452 kts | 96° |
| 2026-04-16 13:05 | 44.97785 | 7.49861 | 34738 ft | 448 kts | 89° |
| 2026-04-16 13:06 | 44.97606 | 7.54250 | 34948 ft | 448 kts | 89° |
| 2026-04-16 13:06 | 44.97424 | 7.58580 | 35168 ft | 448 kts | 89° |
| 2026-04-16 13:06 | 44.97234 | 7.62966 | 35386 ft | 447 kts | 89° |
| 2026-04-16 13:06 | 44.97041 | 7.67340 | 35618 ft | 447 kts | 89° |
| 2026-04-16 13:07 | 44.96846 | 7.71712 | 35872 ft | 445 kts | 89° |
| 2026-04-16 13:07 | 44.96650 | 7.76074 | 36085 ft | 445 kts | 89° |
| 2026-04-16 13:07 | 44.96454 | 7.80433 | 36294 ft | 445 kts | 89° |
| 2026-04-16 13:07 | 44.96258 | 7.84789 | 36477 ft | 444 kts | 90° |
| 2026-04-16 13:08 | 44.96061 | 7.89143 | 36665 ft | 444 kts | 90° |
| 2026-04-16 13:08 | 44.95869 | 7.93439 | 36830 ft | 444 kts | 90° |
| 2026-04-16 13:08 | 44.95670 | 7.97793 | 36999 ft | 444 kts | 90° |
| 2026-04-16 13:08 | 44.95467 | 8.02145 | 37127 ft | 444 kts | 90° |
| 2026-04-16 13:09 | 44.95259 | 8.06491 | 37149 ft | 443 kts | 90° |
| 2026-04-16 13:09 | 44.94846 | 8.15165 | 37146 ft | 443 kts | 90° |
| 2026-04-16 13:10 | 44.94426 | 8.23824 | 37147 ft | 443 kts | 90° |
| 2026-04-16 13:10 | 44.93712 | 8.32510 | 37148 ft | 449 kts | 97° |
| 2026-04-16 13:11 | 44.92532 | 8.41110 | 37144 ft | 450 kts | 98° |
| 2026-04-16 13:11 | 44.91335 | 8.49772 | 37150 ft | 450 kts | 98° |
| 2026-04-16 13:12 | 44.90136 | 8.58427 | 37147 ft | 450 kts | 98° |
| 2026-04-16 13:12 | 44.88939 | 8.67093 | 37147 ft | 450 kts | 98° |
| 2026-04-16 13:13 | 44.87738 | 8.75699 | 37143 ft | 450 kts | 98° |
| 2026-04-16 13:13 | 44.86526 | 8.84362 | 37148 ft | 451 kts | 99° |
| 2026-04-16 13:14 | 44.85295 | 8.93028 | 37142 ft | 451 kts | 99° |
| 2026-04-16 13:14 | 44.84057 | 9.01695 | 37141 ft | 451 kts | 99° |
| 2026-04-16 13:15 | 44.82818 | 9.10355 | 37135 ft | 451 kts | 99° |
| 2026-04-16 13:15 | 44.81585 | 9.18964 | 37142 ft | 451 kts | 100° |
| 2026-04-16 13:16 | 44.80332 | 9.27626 | 37140 ft | 451 kts | 101° |
| 2026-04-16 13:16 | 44.79067 | 9.36283 | 37144 ft | 451 kts | 101° |
| 2026-04-16 13:17 | 44.77798 | 9.44936 | 37134 ft | 451 kts | 101° |
| 2026-04-16 13:17 | 44.76525 | 9.53585 | 37131 ft | 451 kts | 101° |
| 2026-04-16 13:18 | 44.75259 | 9.62162 | 37125 ft | 451 kts | 101° |
| 2026-04-16 13:18 | 44.73974 | 9.70802 | 37124 ft | 451 kts | 101° |
| 2026-04-16 13:19 | 44.72684 | 9.79436 | 37124 ft | 451 kts | 101° |
| 2026-04-16 13:19 | 44.71389 | 9.88068 | 37129 ft | 451 kts | 101° |
| 2026-04-16 13:20 | 44.70093 | 9.96637 | 37162 ft | 451 kts | 102° |
| 2026-04-16 13:20 | 44.68778 | 10.05251 | 37174 ft | 451 kts | 102° |
| 2026-04-16 13:21 | 44.67463 | 10.13858 | 37169 ft | 450 kts | 102° |
| 2026-04-16 13:21 | 44.66141 | 10.22449 | 37169 ft | 450 kts | 102° |
| 2026-04-16 13:22 | 44.64815 | 10.31040 | 37173 ft | 450 kts | 102° |
| 2026-04-16 13:22 | 44.63476 | 10.39617 | 37239 ft | 449 kts | 102° |
| 2026-04-16 13:23 | 44.62141 | 10.48129 | 37249 ft | 449 kts | 103° |
| 2026-04-16 13:23 | 44.60610 | 10.56628 | 37247 ft | 449 kts | 105° |
| 2026-04-16 13:24 | 44.58911 | 10.65049 | 37258 ft | 449 kts | 106° |
| 2026-04-16 13:24 | 44.57218 | 10.73474 | 37258 ft | 449 kts | 105° |
| 2026-04-16 13:25 | 44.55582 | 10.81854 | 37273 ft | 448 kts | 105° |
| 2026-04-16 13:25 | 44.53945 | 10.90289 | 37271 ft | 448 kts | 105° |
| 2026-04-16 13:26 | 44.52287 | 10.98712 | 37266 ft | 448 kts | 105° |
| 2026-04-16 13:26 | 44.50821 | 11.07140 | 37254 ft | 448 kts | 102° |
| 2026-04-16 13:27 | 44.49539 | 11.15675 | 37254 ft | 448 kts | 102° |
| 2026-04-16 13:27 | 44.48233 | 11.24210 | 37253 ft | 448 kts | 103° |
| 2026-04-16 13:27 | 44.47550 | 11.28468 | 37139 ft | 448 kts | 103° |
| 2026-04-16 13:28 | 44.46855 | 11.32721 | 37135 ft | 448 kts | 103° |
| 2026-04-16 13:28 | 44.45457 | 11.41217 | 37148 ft | 448 kts | 103° |
| 2026-04-16 13:29 | 44.44075 | 11.49650 | 37169 ft | 447 kts | 103° |
| 2026-04-16 13:29 | 44.42673 | 11.58130 | 37187 ft | 447 kts | 103° |
| 2026-04-16 13:30 | 44.41271 | 11.66605 | 37196 ft | 447 kts | 103° |
| 2026-04-16 13:30 | 44.39868 | 11.75063 | 37217 ft | 447 kts | 102° |
| 2026-04-16 13:31 | 44.38471 | 11.83460 | 37209 ft | 446 kts | 103° |
| 2026-04-16 13:31 | 44.37053 | 11.91898 | 37198 ft | 446 kts | 103° |
| 2026-04-16 13:32 | 44.35632 | 12.00322 | 37191 ft | 445 kts | 102° |
| 2026-04-16 13:32 | 44.34205 | 12.08736 | 37186 ft | 445 kts | 102° |
| 2026-04-16 13:33 | 44.32789 | 12.17061 | 37188 ft | 443 kts | 102° |
| 2026-04-16 13:33 | 44.31359 | 12.25426 | 37174 ft | 442 kts | 102° |
| 2026-04-16 13:34 | 44.29923 | 12.33775 | 37164 ft | 442 kts | 102° |
| 2026-04-16 13:34 | 44.28483 | 12.42109 | 37185 ft | 441 kts | 102° |
| 2026-04-16 13:35 | 44.27048 | 12.50367 | 37188 ft | 440 kts | 102° |
| 2026-04-16 13:35 | 44.25611 | 12.58656 | 37181 ft | 439 kts | 102° |
| 2026-04-16 13:36 | 44.24170 | 12.66915 | 37162 ft | 438 kts | 102° |
| 2026-04-16 13:36 | 44.22717 | 12.75167 | 37157 ft | 438 kts | 102° |
| 2026-04-16 13:37 | 44.21255 | 12.83413 | 37161 ft | 437 kts | 102° |
| 2026-04-16 13:37 | 44.19802 | 12.91573 | 37159 ft | 437 kts | 102° |
| 2026-04-16 13:38 | 44.18343 | 12.99791 | 37154 ft | 437 kts | 102° |
| 2026-04-16 13:38 | 44.16879 | 13.08002 | 37157 ft | 436 kts | 102° |
| 2026-04-16 13:39 | 44.15410 | 13.16196 | 37160 ft | 436 kts | 102° |
| 2026-04-16 13:39 | 44.13939 | 13.24317 | 37159 ft | 435 kts | 102° |
| 2026-04-16 13:40 | 44.12448 | 13.32468 | 37156 ft | 434 kts | 102° |
| 2026-04-16 13:40 | 44.10965 | 13.40610 | 37152 ft | 434 kts | 102° |
| 2026-04-16 13:41 | 44.09481 | 13.48744 | 37141 ft | 433 kts | 102° |
| 2026-04-16 13:41 | 44.07994 | 13.56805 | 37155 ft | 433 kts | 102° |
| 2026-04-16 13:42 | 44.06498 | 13.64899 | 37149 ft | 432 kts | 102° |
| 2026-04-16 13:42 | 44.05007 | 13.72972 | 37147 ft | 431 kts | 102° |
| 2026-04-16 13:43 | 44.03509 | 13.81025 | 37137 ft | 431 kts | 102° |
| 2026-04-16 13:43 | 44.01999 | 13.89072 | 37143 ft | 430 kts | 102° |
| 2026-04-16 13:44 | 43.99918 | 13.96810 | 37138 ft | 432 kts | 112° |
| 2026-04-16 13:44 | 43.97443 | 14.04409 | 37133 ft | 432 kts | 112° |
| 2026-04-16 13:45 | 43.94968 | 14.11989 | 37132 ft | 431 kts | 112° |
| 2026-04-16 13:45 | 43.92502 | 14.19517 | 37125 ft | 431 kts | 112° |
| 2026-04-16 13:46 | 43.90027 | 14.27078 | 37135 ft | 430 kts | 112° |
| 2026-04-16 13:46 | 43.87546 | 14.34617 | 37135 ft | 429 kts | 112° |
| 2026-04-16 13:47 | 43.85066 | 14.42131 | 37133 ft | 428 kts | 112° |
| 2026-04-16 13:47 | 43.82585 | 14.49629 | 37131 ft | 428 kts | 112° |
| 2026-04-16 13:48 | 43.80104 | 14.57117 | 37112 ft | 428 kts | 112° |
| 2026-04-16 13:48 | 43.77636 | 14.64535 | 37112 ft | 427 kts | 112° |
| 2026-04-16 13:49 | 43.75144 | 14.72003 | 37110 ft | 427 kts | 112° |
| 2026-04-16 13:49 | 43.72648 | 14.79462 | 37106 ft | 427 kts | 112° |
| 2026-04-16 13:50 | 43.70146 | 14.86914 | 37102 ft | 427 kts | 112° |
| 2026-04-16 13:50 | 43.67645 | 14.94353 | 37109 ft | 427 kts | 112° |
| 2026-04-16 13:51 | 43.65149 | 15.01737 | 37112 ft | 427 kts | 112° |
| 2026-04-16 13:51 | 43.62635 | 15.09154 | 37099 ft | 426 kts | 112° |
| 2026-04-16 13:52 | 43.60126 | 15.16561 | 37100 ft | 426 kts | 112° |
| 2026-04-16 13:52 | 43.57617 | 15.23952 | 37097 ft | 426 kts | 112° |
| 2026-04-16 13:53 | 43.55118 | 15.31291 | 37098 ft | 426 kts | 113° |
| 2026-04-16 13:53 | 43.52595 | 15.38668 | 37087 ft | 426 kts | 113° |
| 2026-04-16 13:54 | 43.50064 | 15.46043 | 37080 ft | 426 kts | 113° |
| 2026-04-16 13:54 | 43.47532 | 15.53418 | 37074 ft | 426 kts | 113° |
| 2026-04-16 13:55 | 43.45009 | 15.60738 | 37073 ft | 426 kts | 113° |
| 2026-04-16 13:55 | 43.42464 | 15.68092 | 37073 ft | 426 kts | 113° |
| 2026-04-16 13:56 | 43.39915 | 15.75455 | 37068 ft | 426 kts | 113° |
| 2026-04-16 13:56 | 43.37358 | 15.82815 | 37066 ft | 427 kts | 114° |
| 2026-04-16 13:57 | 43.34810 | 15.90122 | 37063 ft | 427 kts | 114° |
| 2026-04-16 13:57 | 43.32241 | 15.97474 | 37057 ft | 427 kts | 114° |
| 2026-04-16 13:58 | 43.28381 | 16.08493 | 37050 ft | 427 kts | 114° |
| 2026-04-16 13:58 | 43.25793 | 16.15845 | 37052 ft | 428 kts | 114° |
| 2026-04-16 13:59 | 43.23214 | 16.23153 | 37047 ft | 429 kts | 114° |
| 2026-04-16 13:59 | 43.20606 | 16.30508 | 37047 ft | 429 kts | 114° |
| 2026-04-16 14:00 | 43.18002 | 16.37861 | 37046 ft | 429 kts | 114° |
| 2026-04-16 14:00 | 43.15390 | 16.45216 | 36724 ft | 429 kts | 115° |
| 2026-04-16 14:01 | 43.14090 | 16.48876 | 36864 ft | 425 kts | 116° |
| 2026-04-16 14:01 | 43.12809 | 16.52474 | 37008 ft | 421 kts | 116° |
| 2026-04-16 14:01 | 43.11535 | 16.56048 | 37218 ft | 426 kts | 115° |
| 2026-04-16 14:01 | 43.10235 | 16.59687 | 37048 ft | 427 kts | 115° |
| 2026-04-16 14:02 | 43.07607 | 16.66998 | 37053 ft | 429 kts | 115° |
| 2026-04-16 14:02 | 43.04971 | 16.74324 | 37057 ft | 430 kts | 115° |
| 2026-04-16 14:03 | 43.02331 | 16.81650 | 37051 ft | 430 kts | 115° |
| 2026-04-16 14:03 | 42.99704 | 16.88919 | 37051 ft | 430 kts | 115° |
| 2026-04-16 14:04 | 42.97057 | 16.96240 | 37048 ft | 430 kts | 115° |
| 2026-04-16 14:04 | 42.94401 | 17.03554 | 37047 ft | 430 kts | 115° |
| 2026-04-16 14:05 | 42.91745 | 17.10858 | 37055 ft | 429 kts | 116° |
| 2026-04-16 14:05 | 42.89102 | 17.18097 | 37053 ft | 429 kts | 116° |
| 2026-04-16 14:06 | 42.86439 | 17.25366 | 37049 ft | 428 kts | 116° |
| 2026-04-16 14:06 | 42.83778 | 17.32619 | 37043 ft | 428 kts | 116° |
| 2026-04-16 14:07 | 42.81113 | 17.39869 | 37041 ft | 428 kts | 116° |
| 2026-04-16 14:07 | 42.78463 | 17.47069 | 37031 ft | 428 kts | 116° |
| 2026-04-16 14:08 | 42.75786 | 17.54314 | 37031 ft | 428 kts | 116° |
| 2026-04-16 14:08 | 42.73099 | 17.61556 | 37029 ft | 429 kts | 117° |
| 2026-04-16 14:09 | 42.70404 | 17.68793 | 37031 ft | 429 kts | 117° |
| 2026-04-16 14:09 | 42.67710 | 17.76031 | 37033 ft | 429 kts | 117° |
| 2026-04-16 14:10 | 42.65026 | 17.83208 | 37035 ft | 429 kts | 117° |
| 2026-04-16 14:10 | 42.62316 | 17.90442 | 37040 ft | 430 kts | 117° |
| 2026-04-16 14:11 | 42.59596 | 17.97673 | 37043 ft | 430 kts | 117° |
| 2026-04-16 14:11 | 42.56875 | 18.04898 | 37050 ft | 430 kts | 117° |
| 2026-04-16 14:12 | 42.54172 | 18.12064 | 37057 ft | 429 kts | 117° |
| 2026-04-16 14:12 | 42.51455 | 18.19272 | 37058 ft | 429 kts | 117° |
| 2026-04-16 14:13 | 42.48733 | 18.26462 | 37057 ft | 429 kts | 117° |
| 2026-04-16 14:13 | 42.46000 | 18.33645 | 37054 ft | 429 kts | 117° |
| 2026-04-16 14:14 | 42.43282 | 18.40775 | 37054 ft | 429 kts | 117° |
| 2026-04-16 14:14 | 42.40545 | 18.47948 | 37029 ft | 429 kts | 117° |
| 2026-04-16 14:15 | 42.37806 | 18.55112 | 37029 ft | 428 kts | 117° |
| 2026-04-16 14:15 | 42.35063 | 18.62257 | 37027 ft | 428 kts | 118° |
| 2026-04-16 14:16 | 42.32307 | 18.69397 | 37033 ft | 428 kts | 118° |
| 2026-04-16 14:16 | 42.29565 | 18.76481 | 37027 ft | 428 kts | 118° |
| 2026-04-16 14:17 | 42.27087 | 18.83786 | 37029 ft | 428 kts | 112° |
| 2026-04-16 14:17 | 42.24884 | 18.91246 | 37026 ft | 428 kts | 112° |
| 2026-04-16 14:18 | 42.22677 | 18.98641 | 37025 ft | 428 kts | 112° |
| 2026-04-16 14:18 | 42.20448 | 19.06072 | 37022 ft | 428 kts | 112° |
| 2026-04-16 14:19 | 42.18218 | 19.13509 | 37014 ft | 428 kts | 112° |
| 2026-04-16 14:19 | 42.15973 | 19.20959 | 36471 ft | 429 kts | 112° |
| 2026-04-16 14:20 | 42.14855 | 19.24670 | 35931 ft | 426 kts | 112° |
| 2026-04-16 14:20 | 42.13748 | 19.28355 | 35413 ft | 423 kts | 113° |
| 2026-04-16 14:20 | 42.12660 | 19.31964 | 34924 ft | 420 kts | 113° |
| 2026-04-16 14:20 | 42.11563 | 19.35590 | 34422 ft | 418 kts | 113° |
| 2026-04-16 14:21 | 42.10468 | 19.39207 | 33903 ft | 416 kts | 113° |
| 2026-04-16 14:21 | 42.09377 | 19.42807 | 33388 ft | 414 kts | 113° |
| 2026-04-16 14:21 | 42.08295 | 19.46379 | 32880 ft | 410 kts | 114° |
| 2026-04-16 14:21 | 42.07218 | 19.49922 | 32392 ft | 408 kts | 114° |
| 2026-04-16 14:22 | 42.06146 | 19.53439 | 31915 ft | 405 kts | 114° |
| 2026-04-16 14:22 | 42.05079 | 19.56931 | 31424 ft | 402 kts | 113° |
| 2026-04-16 14:22 | 42.04018 | 19.60402 | 30956 ft | 400 kts | 114° |
| 2026-04-16 14:22 | 42.02973 | 19.63806 | 30505 ft | 398 kts | 113° |
| 2026-04-16 14:23 | 42.01919 | 19.67233 | 30042 ft | 395 kts | 113° |
| 2026-04-16 14:23 | 42.00871 | 19.70639 | 29546 ft | 392 kts | 113° |
| 2026-04-16 14:23 | 41.99887 | 19.74034 | 29122 ft | 388 kts | 107° |
| 2026-04-16 14:23 | 41.99317 | 19.77551 | 28697 ft | 385 kts | 97° |
| 2026-04-16 14:24 | 41.99230 | 19.81123 | 28298 ft | 381 kts | 86° |
| 2026-04-16 14:24 | 41.99603 | 19.84630 | 27892 ft | 378 kts | 77° |
| 2026-04-16 14:24 | 42.00297 | 19.88021 | 27488 ft | 374 kts | 75° |
| 2026-04-16 14:24 | 42.00993 | 19.91332 | 27086 ft | 371 kts | 75° |
| 2026-04-16 14:25 | 42.01690 | 19.94652 | 26688 ft | 368 kts | 75° |
| 2026-04-16 14:25 | 42.02378 | 19.97950 | 26263 ft | 365 kts | 75° |
| 2026-04-16 14:25 | 42.03059 | 20.01227 | 25843 ft | 362 kts | 75° |
| 2026-04-16 14:25 | 42.03734 | 20.04481 | 25407 ft | 360 kts | 75° |
| 2026-04-16 14:26 | 42.04405 | 20.07719 | 24980 ft | 358 kts | 75° |
| 2026-04-16 14:26 | 42.05071 | 20.10939 | 24546 ft | 357 kts | 75° |
| 2026-04-16 14:26 | 42.05724 | 20.14105 | 24102 ft | 355 kts | 75° |
| 2026-04-16 14:26 | 42.06385 | 20.17308 | 23649 ft | 355 kts | 75° |
| 2026-04-16 14:27 | 42.07043 | 20.20495 | 23152 ft | 352 kts | 75° |
| 2026-04-16 14:27 | 42.07697 | 20.23658 | 22709 ft | 349 kts | 75° |
| 2026-04-16 14:27 | 42.08346 | 20.26797 | 22277 ft | 346 kts | 75° |
| 2026-04-16 14:27 | 42.08986 | 20.29913 | 21834 ft | 344 kts | 75° |
| 2026-04-16 14:28 | 42.09619 | 20.33013 | 21397 ft | 342 kts | 75° |
| 2026-04-16 14:28 | 42.10246 | 20.36096 | 20996 ft | 340 kts | 75° |
| 2026-04-16 14:28 | 42.10870 | 20.39154 | 20569 ft | 339 kts | 75° |
| 2026-04-16 14:28 | 42.11494 | 20.42205 | 20146 ft | 337 kts | 75° |
| 2026-04-16 14:29 | 42.12145 | 20.45191 | 19729 ft | 336 kts | 70° |
| 2026-04-16 14:29 | 42.13241 | 20.47971 | 19308 ft | 337 kts | 55° |
| 2026-04-16 14:29 | 42.14840 | 20.50282 | 18885 ft | 339 kts | 40° |
| 2026-04-16 14:29 | 42.16843 | 20.51965 | 18458 ft | 341 kts | 26° |
| 2026-04-16 14:30 | 42.19026 | 20.53235 | 17990 ft | 341 kts | 25° |
| 2026-04-16 14:30 | 42.21198 | 20.54494 | 17562 ft | 340 kts | 25° |
| 2026-04-16 14:30 | 42.23364 | 20.55754 | 17138 ft | 337 kts | 25° |
| 2026-04-16 14:30 | 42.25506 | 20.57004 | 16731 ft | 334 kts | 25° |
| 2026-04-16 14:31 | 42.27596 | 20.58226 | 16332 ft | 330 kts | 25° |
| 2026-04-16 14:31 | 42.29690 | 20.59454 | 15933 ft | 326 kts | 25° |
| 2026-04-16 14:31 | 42.31762 | 20.60670 | 15536 ft | 323 kts | 25° |
| 2026-04-16 14:31 | 42.33815 | 20.61872 | 15156 ft | 320 kts | 25° |
| 2026-04-16 14:32 | 42.35844 | 20.63058 | 14770 ft | 317 kts | 24° |
| 2026-04-16 14:32 | 42.37863 | 20.64236 | 14385 ft | 315 kts | 24° |
| 2026-04-16 14:32 | 42.39869 | 20.65412 | 14008 ft | 313 kts | 24° |
| 2026-04-16 14:32 | 42.41859 | 20.66583 | 13593 ft | 311 kts | 24° |
| 2026-04-16 14:33 | 42.43833 | 20.67747 | 13121 ft | 310 kts | 24° |
| 2026-04-16 14:33 | 42.45804 | 20.68910 | 12726 ft | 306 kts | 24° |
| 2026-04-16 14:33 | 42.47720 | 20.70034 | 12346 ft | 303 kts | 24° |
| 2026-04-16 14:33 | 42.49635 | 20.71157 | 11961 ft | 295 kts | 24° |
| 2026-04-16 14:34 | 42.51486 | 20.72246 | 11592 ft | 285 kts | 24° |
| 2026-04-16 14:34 | 42.53269 | 20.73296 | 11236 ft | 274 kts | 25° |
| 2026-04-16 14:34 | 42.54991 | 20.74310 | 10892 ft | 265 kts | 25° |
| 2026-04-16 14:34 | 42.56660 | 20.75297 | 10553 ft | 259 kts | 25° |
| 2026-04-16 14:35 | 42.58289 | 20.76259 | 10218 ft | 252 kts | 25° |
| 2026-04-16 14:35 | 42.59873 | 20.77193 | 9880 ft | 252 kts | 25° |
| 2026-04-16 14:35 | 42.61480 | 20.78142 | 9520 ft | 252 kts | 25° |
| 2026-04-16 14:35 | 42.63072 | 20.79084 | 9171 ft | 247 kts | 25° |
| 2026-04-16 14:36 | 42.64632 | 20.80007 | 8825 ft | 242 kts | 25° |
| 2026-04-16 14:36 | 42.66159 | 20.80912 | 8505 ft | 238 kts | 25° |
| 2026-04-16 14:36 | 42.67670 | 20.81809 | 8152 ft | 234 kts | 25° |
| 2026-04-16 14:36 | 42.69139 | 20.82683 | 7808 ft | 227 kts | 25° |
| 2026-04-16 14:37 | 42.70528 | 20.83508 | 7677 ft | 214 kts | 25° |
| 2026-04-16 14:37 | 42.71863 | 20.84299 | 7611 ft | 207 kts | 25° |
| 2026-04-16 14:37 | 42.73089 | 20.85288 | 7505 ft | 205 kts | 41° |
| 2026-04-16 14:37 | 42.74040 | 20.86711 | 7440 ft | 203 kts | 57° |
| 2026-04-16 14:38 | 42.74659 | 20.88453 | 7063 ft | 210 kts | 73° |
| 2026-04-16 14:38 | 42.74884 | 20.90464 | 6512 ft | 219 kts | 85° |
| 2026-04-16 14:38 | 42.74988 | 20.92543 | 5960 ft | 222 kts | 84° |
| 2026-04-16 14:38 | 42.75098 | 20.94575 | 5846 ft | 209 kts | 84° |
| 2026-04-16 14:39 | 42.75201 | 20.96500 | 5796 ft | 201 kts | 85° |
| 2026-04-16 14:39 | 42.75033 | 20.98385 | 5604 ft | 204 kts | 105° |
| 2026-04-16 14:39 | 42.74396 | 21.00088 | 5274 ft | 209 kts | 125° |
| 2026-04-16 14:39 | 42.73290 | 21.01440 | 4760 ft | 219 kts | 149° |
| 2026-04-16 14:40 | 42.71860 | 21.02092 | 4428 ft | 217 kts | 172° |
| 2026-04-16 14:40 | 42.70392 | 21.02246 | 4181 ft | 209 kts | 173° |
| 2026-04-16 14:40 | 42.68949 | 21.02395 | 3862 ft | 207 kts | 173° |
| 2026-04-16 14:40 | 42.67536 | 21.02539 | 3599 ft | 199 kts | 173° |
| 2026-04-16 14:41 | 42.66167 | 21.02679 | 3336 ft | 195 kts | 174° |
| 2026-04-16 14:41 | 42.64878 | 21.02810 | 3084 ft | 181 kts | 173° |
| 2026-04-16 14:41 | 42.63667 | 21.02934 | 2865 ft | 169 kts | 172° |
| 2026-04-16 14:41 | 42.62518 | 21.03052 | 2627 ft | 162 kts | 173° |
| 2026-04-16 14:42 | 42.61426 | 21.03174 | 2401 ft | 153 kts | 175° |
| 2026-04-16 14:42 | 42.60382 | 21.03274 | 2182 ft | 148 kts | 175° |
| 2026-04-16 14:42 | 42.59358 | 21.03382 | 2011 ft | 147 kts | 174° |
| 2026-04-16 14:42 | 42.58355 | 21.03481 | 1822 ft | 143 kts | 175° |
| 2026-04-16 14:43 | 42.57487 | 21.03571 | 1789 ft | 94 kts | 176° |
| 2026-04-16 14:43 | 42.57097 | 21.03607 | 1789 ft | 37 kts | 175° |
| 2026-04-16 14:43 | 42.56884 | 21.03628 | 1784 ft | 23 kts | 177° |
| 2026-04-16 14:43 | 42.56751 | 21.03603 | 1783 ft | 20 kts | 200° |
| 2026-04-16 14:44 | 42.56623 | 21.03530 | 1780 ft | 18 kts | 204° |
| 2026-04-16 14:44 | 42.56551 | 21.03467 | 1782 ft | 9 kts | 248° |
| 2026-04-16 14:44 | 42.56588 | 21.03417 | 1783 ft | 8 kts | 349° |
| 2026-04-16 14:44 | 42.56640 | 21.03410 | 1783 ft | 8 kts | 354° |
| 2026-04-16 14:45 | 42.56698 | 21.03403 | 1782 ft | 9 kts | 356° |
| 2026-04-16 14:45 | 42.56762 | 21.03398 | 1781 ft | 9 kts | 356° |
| 2026-04-16 14:45 | 42.56824 | 21.03393 | 1781 ft | 8 kts | 356° |
| 2026-04-16 14:45 | 42.56881 | 21.03387 | 1783 ft | 8 kts | 355° |
| 2026-04-16 14:46 | 42.56943 | 21.03381 | 1786 ft | 10 kts | 355° |
| 2026-04-16 14:46 | 42.57013 | 21.03372 | 1786 ft | 10 kts | 355° |
| 2026-04-16 14:46 | 42.57090 | 21.03365 | 1785 ft | 12 kts | 356° |
| 2026-04-16 14:46 | 42.57176 | 21.03356 | 1784 ft | 12 kts | 356° |
| 2026-04-16 14:47 | 42.57254 | 21.03348 | 1787 ft | 10 kts | 356° |
| 2026-04-16 14:47 | 42.57312 | 21.03327 | 1786 ft | 6 kts | 323° |
| 2026-04-16 14:47 | 42.57326 | 21.03273 | 1787 ft | 6 kts | 290° |
| 2026-04-16 14:47 | 42.57364 | 21.03241 | 1787 ft | 7 kts | 347° |
| 2026-04-16 14:48 | 42.57389 | 21.03233 | 1787 ft | 3 kts | 335° |
| 2026-04-16 14:48 | 42.57400 | 21.03197 | 1785 ft | 5 kts | 271° |
| 2026-04-16 14:48 | 42.57396 | 21.03157 | 1785 ft | 3 kts | 263° |
| 2026-04-16 14:48 | 42.57396 | 21.03154 | 1785 ft | 0 kts | 263° |